CheckWX is a tool to help pilots better visualize weather data.  It is not intended as a substitute for an official pre-flight weather briefing.

06:46:33 UTC

LIBF METAR
Foggia "Gino Lisa" Airport
Foggia, Italy
Current

15 hours ago

LIBF 061550Z 07008KT CAVOK 17/01 Q1024
Observed
Apr-6 @ 15:50 UTC
Wind
  • 070° at 8 KTS
Visibility
10,000+ meters
Flight Rules
VFR
Cloud Levels
  • Clear skies
Temperature
17°C / 63°F
Dewpoint
C / 34°F
Humidity
34%
Altimeter
30.24" Hg
Pressure
1023.92 hPa
Previous

16 hours ago

LIBF 061450Z 07009KT 030V110 CAVOK 17/03 Q1024
Observed
Apr-6 @ 14:50 UTC
Wind
  • 070° at 9 KTS
Visibility
10,000+ meters
Flight Rules
VFR
Cloud Levels
  • Clear skies
Temperature
17°C / 63°F
Dewpoint
C / 37°F
Humidity
39%
Altimeter
30.24" Hg
Pressure
1023.92 hPa
Previous

17 hours ago

LIBF 061350Z 08010KT 050V120 CAVOK 17/03 Q1024
Observed
Apr-6 @ 13:50 UTC
Wind
  • 080° at 10 KTS
Visibility
10,000+ meters
Flight Rules
VFR
Cloud Levels
  • Clear skies
Temperature
17°C / 63°F
Dewpoint
C / 37°F
Humidity
39%
Altimeter
30.24" Hg
Pressure
1023.92 hPa